Sakaide Maru — 3EYR6 — position and weather

sailwx.info

Track history (hours):
 
Tides and Currents Weather Stations Pressure Air Temp Water Temp Dewpoint Dewpoint Depression Visibility Wind Speed Wind Dir Waves Ship Positions

Sakaide Maru

Last reported at 2015-Jul-28 19:20 UTC. Time now 2015-Aug-04 03:24 UTC.
Position N 35°33' E 141°55'.

Length 255 m; draft 7.6 m.

Type: Cargo ship. MMSI: 354898000.

Date/timePositionNaut miles runAvg speedWind from/ knotsBaromVisibWave heightAir tempDewpointWater temp
2015-Jul-28 19:20N 35°33' E 141°55'2613.0
2015-Jul-28 17:20N 35°17' E 141°30'3913.5
2015-Jul-28 14:25N 34°53' E 140°51'1113.1
2015-Jul-28 13:33N 34°46' E 140°41'1312.2
2015-Jul-28 12:30N 34°38' E 140°28'1313.5
2015-Jul-28 11:30N 34°30' E 140°16'1614.3
2015-Jul-28 10:24N 34°20' E 140°01'1415.3
2015-Jul-28 09:30N 34°16' E 139°45'1516.1
2015-Jul-28 08:33N 34°12' E 139°27'22412.1
2015-Jul-27 14:04N 33°57' E 134°56'714.2
2015-Jul-27 13:33N 34°04' E 134°56'1212.0
2015-Jul-27 12:32N 34°17' E 134°58'1313.1
2015-Jul-27 11:33N 34°29' E 135°04'8 7.9
2015-Jul-27 10:29N 34°37' E 135°01'1212.6
2015-Jul-27 09:33N 34°33' E 134°48'  
2015-Jul-23 02:24N 34°36' E 134°55'910.9
2015-Jul-23 01:33N 34°35' E 135°06'5 5.3
2015-Jul-23 00:33N 34°30' E 135°06'1312.9
2015-Jul-22 23:33N 34°18' E 134°59'10 9.8
2015-Jul-22 22:34N 34°08' E 134°59'9 9.3
2015-Jul-22 21:33N 33°59' E 134°59'  
Track history (hours):
 
Tides and Currents Weather Stations Pressure Air Temp Water Temp Dewpoint Dewpoint Depression Visibility Wind Speed Wind Dir Waves Ship Positions

Sakaide Maru

Last reported at 2015-Jul-28 19:20 UTC. Time now 2015-Aug-04 03:24 UTC.
Position N 35°33' E 141°55'.

Length 255 m; draft 7.6 m.

Type: Cargo ship. MMSI: 354898000.

Date/timePositionNaut miles runAvg speedWind from/ knotsBaromVisibWave heightAir tempDewpointWater temp
2015-Jul-28 19:20N 35°33' E 141°55'2613.0
2015-Jul-28 17:20N 35°17' E 141°30'3913.5
2015-Jul-28 14:25N 34°53' E 140°51'1113.1
2015-Jul-28 13:33N 34°46' E 140°41'1312.2
2015-Jul-28 12:30N 34°38' E 140°28'1313.5
2015-Jul-28 11:30N 34°30' E 140°16'1614.3
2015-Jul-28 10:24N 34°20' E 140°01'1415.3
2015-Jul-28 09:30N 34°16' E 139°45'1516.1
2015-Jul-28 08:33N 34°12' E 139°27'22412.1
2015-Jul-27 14:04N 33°57' E 134°56'714.2
2015-Jul-27 13:33N 34°04' E 134°56'1212.0
2015-Jul-27 12:32N 34°17' E 134°58'1313.1
2015-Jul-27 11:33N 34°29' E 135°04'8 7.9
2015-Jul-27 10:29N 34°37' E 135°01'1212.6
2015-Jul-27 09:33N 34°33' E 134°48'  
2015-Jul-23 02:24N 34°36' E 134°55'910.9
2015-Jul-23 01:33N 34°35' E 135°06'5 5.3
2015-Jul-23 00:33N 34°30' E 135°06'1312.9
2015-Jul-22 23:33N 34°18' E 134°59'10 9.8
2015-Jul-22 22:34N 34°08' E 134°59'9 9.3
2015-Jul-22 21:33N 33°59' E 134°59'  

Dump ship's entire track history